Terminal Aerodrome Forecast
Issued by NWS Bismarck, ND

Home | Current Version | Previous Version | Graphics & Text | Print | Product List | Glossary On
Versions: 1 2 3 4 5 6 7 8 9 10 11 12 13 14 15 16 17
000
FTUS43 KBIS 211100
TAFBIS
TAF
KBIS 211120Z 2112/2212 14011KT P6SM SKC WS020/16040KT
     FM212000 15014G24KT P6SM FEW120 SCT250
     FM220000 15012KT P6SM SCT120 BKN180
     FM221000 28011KT P6SM VCSH SCT050 BKN100=

USA.gov is the U.S. government's official web portal to all federal, state and local government web resources and services.